Time;durP1;ratioP1;P1;durP2;ratioP2;P2;SDS_P1;SDS_P2;PMS_P1;PMS_P2;Temp;Humidity;BMP_temperature;BMP_pressure;BME280_temperature;BME280_humidity;BME280_pressure;Samples;Min_cycle;Max_cycle;Signal;HPM_P1;HPM_P2
2021/12/24 00:01:15;;;;;;;20.57;11.93;;;;;;;;;;5050666;28;20932;-72
2021/12/24 00:03:42;;;;;;;18.90;12.37;;;;;;;;;;5050628;28;20972;-72
2021/12/24 00:06:10;;;;;;;12.40;8.80;;;;;;;;;;5050409;28;20804;-70
2021/12/24 00:08:38;;;;;;;19.10;10.97;;;;;;;;;;5049983;28;20453;-72
2021/12/24 00:11:06;;;;;;;17.37;10.27;;;;;;;;;;5050336;28;21001;-73
2021/12/24 00:13:36;;;;;;;20.50;11.93;;;;;;;;;;5050624;28;20497;-72
2021/12/24 00:16:09;;;;;;;19.83;11.90;;;;;;;;;;5049896;28;20461;-72
2021/12/24 00:18:43;;;;;;;16.93;11.43;;;;;;;;;;5049879;28;20606;-73
2021/12/24 00:35:16;;;;;;;30.33;12.53;;;;;;;;;;5050244;28;20439;-71
2021/12/24 00:37:44;;;;;;;18.23;11.40;;;;;;;;;;5049991;28;20532;-70
2021/12/24 00:40:17;;;;;;;22.40;11.10;;;;;;;;;;5049891;28;20510;-70
2021/12/24 00:42:46;;;;;;;25.40;13.07;;;;;;;;;;5049744;28;20480;-71
2021/12/24 00:45:14;;;;;;;17.73;11.20;;;;;;;;;;5050016;28;20461;-72
2021/12/24 00:47:43;;;;;;;20.10;12.27;;;;;;;;;;5049575;28;20939;-70
2021/12/24 00:50:14;;;;;;;22.93;11.40;;;;;;;;;;5049737;28;20461;-71
2021/12/24 00:52:48;;;;;;;25.00;13.50;;;;;;;;;;5049922;28;20532;-71
2021/12/24 00:55:14;;;;;;;16.90;11.43;;;;;;;;;;5042853;28;20541;-72
2021/12/24 00:57:42;;;;;;;21.00;12.63;;;;;;;;;;5029929;28;20895;-73
2021/12/24 01:00:11;;;;;;;19.57;13.13;;;;;;;;;;5029909;28;20460;-72
2021/12/24 01:02:38;;;;;;;27.50;14.17;;;;;;;;;;5029702;28;20478;-71
2021/12/24 01:05:08;;;;;;;25.33;13.03;;;;;;;;;;5029642;28;20931;-72
2021/12/24 01:07:35;;;;;;;17.50;11.60;;;;;;;;;;5029798;28;20460;-73
2021/12/24 01:10:02;;;;;;;20.67;12.17;;;;;;;;;;5029111;28;20457;-72
2021/12/24 01:12:30;;;;;;;30.07;15.40;;;;;;;;;;5029500;28;20477;-72
2021/12/24 01:14:57;;;;;;;23.20;13.13;;;;;;;;;;5029657;28;20506;-71
2021/12/24 01:17:36;;;;;;;18.83;13.10;;;;;;;;;;5029178;28;20484;-70
2021/12/24 01:20:10;;;;;;;24.90;13.20;;;;;;;;;;5029780;28;20450;-71
2021/12/24 01:25:32;;;;;;;21.43;12.57;;;;;;;;;;5029420;28;20433;-72
2021/12/24 01:39:07;;;;;;;23.70;12.13;;;;;;;;;;5033291;28;20482;-72
2021/12/24 01:44:23;;;;;;;20.70;12.00;;;;;;;;;;5033367;28;20429;-71
2021/12/24 01:46:51;;;;;;;18.23;11.60;;;;;;;;;;5033066;28;21027;-70
2021/12/24 01:49:22;;;;;;;22.40;12.83;;;;;;;;;;5033502;28;20496;-71
2021/12/24 01:51:49;;;;;;;16.43;10.70;;;;;;;;;;5033418;28;20524;-72
2021/12/24 01:54:18;;;;;;;17.10;11.27;;;;;;;;;;5032964;28;21196;-73
2021/12/24 01:56:45;;;;;;;21.30;12.83;;;;;;;;;;5033371;28;20900;-71
2021/12/24 01:59:13;;;;;;;25.50;12.17;;;;;;;;;;5033041;28;20589;-70
2021/12/24 02:01:40;;;;;;;20.73;12.50;;;;;;;;;;5032966;28;20475;-73
2021/12/24 02:04:08;;;;;;;21.67;12.43;;;;;;;;;;5033241;28;20450;-71
2021/12/24 02:06:35;;;;;;;18.20;11.13;;;;;;;;;;5033239;28;20462;-69
2021/12/24 02:09:03;;;;;;;15.93;12.30;;;;;;;;;;5032716;28;20455;-71
2021/12/24 02:11:37;;;;;;;19.73;12.93;;;;;;;;;;5032817;28;20784;-72
2021/12/24 02:14:04;;;;;;;23.60;13.60;;;;;;;;;;5031511;28;20497;-71
2021/12/24 02:17:02;;;;;;;19.70;12.43;;;;;;;;;;5032530;28;20817;-69
2021/12/24 02:30:37;;;;;;;21.77;12.07;;;;;;;;;;5032358;28;20430;-72
2021/12/24 02:33:05;;;;;;;22.60;14.30;;;;;;;;;;5031908;28;20494;-73
2021/12/24 02:35:33;;;;;;;25.43;12.57;;;;;;;;;;5032762;28;20451;-71
2021/12/24 02:38:02;;;;;;;23.43;13.60;;;;;;;;;;5032295;28;20508;-71
2021/12/24 02:40:30;;;;;;;19.70;13.40;;;;;;;;;;5032068;28;20519;-72
2021/12/24 02:42:58;;;;;;;22.33;13.77;;;;;;;;;;5032203;28;20468;-70
2021/12/24 02:45:27;;;;;;;25.97;13.70;;;;;;;;;;5031190;28;20526;-72
2021/12/24 02:48:10;;;;;;;25.13;13.73;;;;;;;;;;5032470;28;20457;-70
2021/12/24 02:56:24;;;;;;;21.70;13.50;;;;;;;;;;4989808;28;20455;-71
2021/12/24 02:58:52;;;;;;;22.50;12.53;;;;;;;;;;5021880;28;20505;-70
2021/12/24 03:01:20;;;;;;;18.93;12.27;;;;;;;;;;5031750;28;20461;-70
2021/12/24 03:03:49;;;;;;;21.17;13.23;;;;;;;;;;5031981;28;20477;-70
2021/12/24 03:06:18;;;;;;;27.70;13.60;;;;;;;;;;5031904;28;20558;-71
2021/12/24 03:08:47;;;;;;;18.87;13.53;;;;;;;;;;5031642;28;20929;-72
2021/12/24 03:11:14;;;;;;;23.67;14.67;;;;;;;;;;5031874;28;20458;-71
2021/12/24 03:13:42;;;;;;;26.87;15.13;;;;;;;;;;5031697;28;20488;-71
2021/12/24 03:16:09;;;;;;;26.03;14.80;;;;;;;;;;5031820;28;20456;-72
2021/12/24 03:18:39;;;;;;;25.93;14.60;;;;;;;;;;5031398;28;20501;-70
2021/12/24 03:21:11;;;;;;;27.30;15.40;;;;;;;;;;5031568;28;20461;-72
2021/12/24 03:23:41;;;;;;;21.73;14.73;;;;;;;;;;5031828;28;20816;-70
2021/12/24 03:26:10;;;;;;;26.27;14.23;;;;;;;;;;5031429;28;20461;-71
2021/12/24 03:28:38;;;;;;;23.30;14.30;;;;;;;;;;5031566;28;20866;-70
2021/12/24 03:31:06;;;;;;;28.03;16.47;;;;;;;;;;5031540;28;20461;-71
2021/12/24 03:33:34;;;;;;;22.70;14.97;;;;;;;;;;5031538;28;20492;-72
2021/12/24 03:36:01;;;;;;;23.37;14.73;;;;;;;;;;5031361;28;20990;-71
2021/12/24 03:38:29;;;;;;;28.27;16.83;;;;;;;;;;5031550;28;20797;-72
2021/12/24 03:40:56;;;;;;;28.03;14.77;;;;;;;;;;5031224;28;20541;-72
2021/12/24 03:43:25;;;;;;;28.80;16.90;;;;;;;;;;5030916;28;20473;-70
2021/12/24 03:46:00;;;;;;;23.87;14.00;;;;;;;;;;5031387;28;20449;-70
2021/12/24 03:48:41;;;;;;;27.37;15.47;;;;;;;;;;5031375;28;20811;-70
2021/12/24 03:51:25;;;;;;;26.27;13.80;;;;;;;;;;5030963;28;20458;-70
2021/12/24 03:56:39;;;;;;;27.57;14.90;;;;;;;;;;5030574;28;20530;-70
2021/12/24 03:59:08;;;;;;;24.20;15.77;;;;;;;;;;5030327;28;20803;-72
2021/12/24 04:01:35;;;;;;;26.47;15.07;;;;;;;;;;5030720;28;20485;-72
2021/12/24 04:04:02;;;;;;;18.87;14.73;;;;;;;;;;5030692;28;20451;-71
2021/12/24 04:06:30;;;;;;;26.03;14.90;;;;;;;;;;5030756;28;20452;-70
2021/12/24 04:08:57;;;;;;;32.17;16.53;;;;;;;;;;5030928;28;20449;-71
2021/12/24 04:11:24;;;;;;;29.10;16.20;;;;;;;;;;5030730;28;20480;-73
2021/12/24 04:13:52;;;;;;;30.20;16.10;;;;;;;;;;5030509;28;20491;-71
2021/12/24 04:16:20;;;;;;;33.73;18.53;;;;;;;;;;5030018;28;20451;-71
2021/12/24 04:18:55;;;;;;;37.60;20.60;;;;;;;;;;5030467;28;20924;-71
2021/12/24 04:26:53;;;;;;;45.57;21.73;;;;;;;;;;5030256;28;20807;-70
2021/12/24 04:29:20;;;;;;;32.30;19.90;;;;;;;;;;5030057;28;20493;-72
2021/12/24 04:31:57;;;;;;;34.63;19.20;;;;;;;;;;5030086;28;20476;-72
2021/12/24 04:34:32;;;;;;;32.40;18.47;;;;;;;;;;5030446;28;20577;-71
2021/12/24 04:37:38;;;;;;;36.93;20.13;;;;;;;;;;5030342;28;20459;-70
2021/12/24 04:50:58;;;;;;;29.97;19.17;;;;;;;;;;5030033;28;20455;-72
2021/12/24 04:51:09;;;;;;;35.73;21.40;;;;;;;;;;5029939;28;20613;-69
2021/12/24 05:02:07;;;;;;;32.67;19.93;;;;;;;;;;5030004;28;20456;-71
2021/12/24 05:04:45;;;;;;;31.00;19.00;;;;;;;;;;5029814;28;20450;-72
2021/12/24 05:07:28;;;;;;;31.00;19.57;;;;;;;;;;5030073;28;20469;-70
2021/12/24 05:09:55;;;;;;;27.17;16.70;;;;;;;;;;5029765;28;20458;-71
2021/12/24 05:12:22;;;;;;;38.97;19.23;;;;;;;;;;5029617;28;20563;-71
2021/12/24 05:14:50;;;;;;;41.83;20.87;;;;;;;;;;5029655;28;20502;-71
2021/12/24 05:17:25;;;;;;;36.13;18.10;;;;;;;;;;5029496;28;20482;-73
2021/12/24 05:22:39;;;;;;;30.47;17.43;;;;;;;;;;5029664;28;20498;-70
2021/12/24 05:25:07;;;;;;;26.73;17.90;;;;;;;;;;5029748;28;20485;-72
2021/12/24 05:27:36;;;;;;;46.30;28.30;;;;;;;;;;5029347;28;20803;-71
2021/12/24 05:30:05;;;;;;;35.20;20.40;;;;;;;;;;5029665;28;20450;-70
2021/12/24 05:32:32;;;;;;;36.50;21.00;;;;;;;;;;5028167;28;20538;-70
2021/12/24 05:35:01;;;;;;;32.40;21.63;;;;;;;;;;5029318;28;20534;-72
2021/12/24 05:37:28;;;;;;;39.30;21.30;;;;;;;;;;5029574;28;20459;-71
2021/12/24 05:39:55;;;;;;;35.50;22.73;;;;;;;;;;5029442;28;20596;-72
2021/12/24 05:42:25;;;;;;;30.70;19.43;;;;;;;;;;5029028;28;20501;-71
2021/12/24 05:44:52;;;;;;;34.77;21.33;;;;;;;;;;5029441;28;20452;-71
2021/12/24 05:47:20;;;;;;;33.60;18.63;;;;;;;;;;5028997;28;20454;-70
2021/12/24 05:49:47;;;;;;;38.43;20.30;;;;;;;;;;5029291;28;20505;-72
2021/12/24 05:52:15;;;;;;;35.20;20.20;;;;;;;;;;5029262;28;20471;-71
2021/12/24 05:54:43;;;;;;;34.47;21.07;;;;;;;;;;5028783;28;20486;-71
2021/12/24 05:57:12;;;;;;;34.30;19.33;;;;;;;;;;5029021;28;20451;-69
2021/12/24 05:59:39;;;;;;;36.57;20.67;;;;;;;;;;5029491;28;20444;-70
2021/12/24 06:02:07;;;;;;;34.27;19.93;;;;;;;;;;5029221;28;20483;-71
2021/12/24 06:04:34;;;;;;;32.10;17.80;;;;;;;;;;5028960;28;20448;-73
2021/12/24 06:07:01;;;;;;;32.20;17.30;;;;;;;;;;5029088;28;20985;-72
2021/12/24 06:09:30;;;;;;;35.27;19.70;;;;;;;;;;5028909;28;20460;-71
2021/12/24 06:11:57;;;;;;;33.90;19.00;;;;;;;;;;5028522;28;20471;-70
2021/12/24 06:14:25;;;;;;;28.23;17.97;;;;;;;;;;5029134;28;20493;-70
2021/12/24 06:17:01;;;;;;;29.37;18.87;;;;;;;;;;5028906;28;20499;-70
2021/12/24 06:19:28;;;;;;;33.60;18.13;;;;;;;;;;5029002;28;20458;-71
2021/12/24 06:21:56;;;;;;;32.80;18.00;;;;;;;;;;5031736;28;20481;-71
2021/12/24 06:24:23;;;;;;;26.00;18.90;;;;;;;;;;5032739;28;20897;-71
2021/12/24 06:26:52;;;;;;;31.27;17.83;;;;;;;;;;5032739;28;20814;-71
2021/12/24 06:29:21;;;;;;;34.13;19.90;;;;;;;;;;5032736;28;20458;-71
2021/12/24 06:31:48;;;;;;;33.13;18.50;;;;;;;;;;5032613;28;21030;-71
2021/12/24 06:34:16;;;;;;;31.40;18.20;;;;;;;;;;5032190;28;20575;-69
2021/12/24 06:36:44;;;;;;;32.90;19.20;;;;;;;;;;5032498;28;20460;-70
2021/12/24 06:39:12;;;;;;;28.93;19.00;;;;;;;;;;5032620;28;20457;-71
2021/12/24 06:41:39;;;;;;;40.53;19.77;;;;;;;;;;5032313;28;20815;-70
2021/12/24 06:44:11;;;;;;;34.63;18.80;;;;;;;;;;5032209;28;20511;-70
2021/12/24 06:46:40;;;;;;;26.33;17.93;;;;;;;;;;5032143;28;20548;-72
2021/12/24 06:49:07;;;;;;;29.67;17.37;;;;;;;;;;5032460;28;20990;-69
2021/12/24 06:51:35;;;;;;;27.20;16.27;;;;;;;;;;5032316;28;20880;-71
2021/12/24 06:54:02;;;;;;;30.43;18.33;;;;;;;;;;5032199;28;20452;-73
2021/12/24 06:56:29;;;;;;;28.57;17.90;;;;;;;;;;5031816;28;20515;-74
2021/12/24 06:58:57;;;;;;;28.93;17.30;;;;;;;;;;5031880;28;20953;-76
2021/12/24 07:01:25;;;;;;;28.30;18.70;;;;;;;;;;5031932;28;20975;-76
2021/12/24 07:03:53;;;;;;;40.73;21.87;;;;;;;;;;5031723;28;20520;-76
2021/12/24 07:06:21;;;;;;;36.80;19.00;;;;;;;;;;5031928;28;20456;-78
2021/12/24 07:08:48;;;;;;;29.90;16.80;;;;;;;;;;5032098;28;20467;-79
2021/12/24 07:11:16;;;;;;;29.50;19.30;;;;;;;;;;5031215;28;20469;-77
2021/12/24 07:13:43;;;;;;;36.27;18.87;;;;;;;;;;5031843;28;20459;-75
2021/12/24 07:16:10;;;;;;;25.70;18.73;;;;;;;;;;5031740;28;20539;-76
2021/12/24 07:18:39;;;;;;;24.67;16.00;;;;;;;;;;5031537;28;21175;-79
2021/12/24 07:21:06;;;;;;;31.40;18.63;;;;;;;;;;5031953;28;20490;-71
2021/12/24 07:23:34;;;;;;;28.73;18.67;;;;;;;;;;5031682;28;20454;-76
2021/12/24 07:26:01;;;;;;;31.60;17.20;;;;;;;;;;5031357;28;20452;-73
2021/12/24 07:28:28;;;;;;;32.73;18.33;;;;;;;;;;5031139;28;20457;-74
2021/12/24 07:30:56;;;;;;;29.57;18.83;;;;;;;;;;5031671;28;20508;-74
2021/12/24 07:33:23;;;;;;;28.80;18.37;;;;;;;;;;5031224;28;20464;-77
2021/12/24 07:35:52;;;;;;;32.77;18.20;;;;;;;;;;5031297;28;20491;-77
2021/12/24 07:38:19;;;;;;;23.20;14.10;;;;;;;;;;5030895;28;20454;-73
2021/12/24 07:40:47;;;;;;;25.23;16.30;;;;;;;;;;5033877;28;20451;-76
2021/12/24 07:43:14;;;;;;;21.10;13.43;;;;;;;;;;5041400;28;20481;-72
2021/12/24 07:45:43;;;;;;;30.20;16.60;;;;;;;;;;5034946;28;20448;-73
2021/12/24 07:48:13;;;;;;;28.20;15.00;;;;;;;;;;5037072;28;20506;-73
2021/12/24 07:53:27;;;;;;;21.53;13.20;;;;;;;;;;5031145;28;20455;-75
2021/12/24 07:55:56;;;;;;;25.37;15.70;;;;;;;;;;5030656;28;20497;-71
2021/12/24 07:58:24;;;;;;;27.33;14.67;;;;;;;;;;5031092;28;20463;-72
2021/12/24 08:00:52;;;;;;;22.53;13.90;;;;;;;;;;5030984;28;20876;-75
2021/12/24 08:03:19;;;;;;;28.73;14.80;;;;;;;;;;5030732;28;21065;-73
2021/12/24 08:05:48;;;;;;;27.63;14.70;;;;;;;;;;5030870;28;20541;-71
2021/12/24 08:08:16;;;;;;;29.43;14.57;;;;;;;;;;5030877;28;20480;-71
2021/12/24 08:10:45;;;;;;;34.17;17.40;;;;;;;;;;5030737;28;20564;-71
2021/12/24 08:13:12;;;;;;;32.47;16.50;;;;;;;;;;5030670;28;20884;-70
2021/12/24 08:15:40;;;;;;;26.20;14.50;;;;;;;;;;5030520;28;20490;-70
2021/12/24 08:18:07;;;;;;;27.50;14.37;;;;;;;;;;5029954;28;20502;-69
2021/12/24 08:20:34;;;;;;;23.40;14.27;;;;;;;;;;5030537;28;20448;-72
2021/12/24 08:23:02;;;;;;;19.33;13.40;;;;;;;;;;5034289;28;20470;-70
2021/12/24 08:25:29;;;;;;;18.43;12.33;;;;;;;;;;5050223;28;20445;-72
2021/12/24 08:27:58;;;;;;;18.87;12.30;;;;;;;;;;5050334;28;20464;-73
2021/12/24 08:30:25;;;;;;;19.80;11.80;;;;;;;;;;5050314;28;20921;-71
2021/12/24 08:32:54;;;;;;;18.53;12.40;;;;;;;;;;5049786;28;20488;-72
2021/12/24 08:35:22;;;;;;;17.67;9.97;;;;;;;;;;5050105;28;20570;-74
2021/12/24 08:37:49;;;;;;;19.77;11.57;;;;;;;;;;5050331;28;20477;-71
2021/12/24 08:40:16;;;;;;;18.93;12.40;;;;;;;;;;5050018;28;20456;-71
2021/12/24 08:42:44;;;;;;;19.30;11.30;;;;;;;;;;5049865;28;20476;-71
2021/12/24 08:45:13;;;;;;;20.67;11.80;;;;;;;;;;5049437;28;20453;-73
2021/12/24 08:47:40;;;;;;;15.37;11.57;;;;;;;;;;5050051;28;20453;-71
2021/12/24 08:50:10;;;;;;;22.00;11.63;;;;;;;;;;5050155;28;20513;-72
2021/12/24 08:52:37;;;;;;;19.93;12.97;;;;;;;;;;5049872;28;20979;-72
2021/12/24 08:55:05;;;;;;;23.37;13.53;;;;;;;;;;5044768;28;20561;-73
2021/12/24 08:57:32;;;;;;;20.57;13.47;;;;;;;;;;5029584;28;20452;-73
2021/12/24 08:59:59;;;;;;;19.70;12.97;;;;;;;;;;5030278;28;20465;-76
2021/12/24 09:02:28;;;;;;;22.83;14.43;;;;;;;;;;5029802;28;20471;-69
2021/12/24 09:04:55;;;;;;;20.40;13.70;;;;;;;;;;5029994;28;20498;-75
2021/12/24 09:07:23;;;;;;;21.23;13.40;;;;;;;;;;5030037;28;20460;-73
2021/12/24 09:09:50;;;;;;;20.93;12.80;;;;;;;;;;5029845;28;20461;-70
2021/12/24 09:12:17;;;;;;;18.40;12.43;;;;;;;;;;5029454;28;20476;-73
2021/12/24 09:14:44;;;;;;;19.70;12.97;;;;;;;;;;5029627;28;20445;-72
2021/12/24 09:17:12;;;;;;;20.83;13.07;;;;;;;;;;5029015;28;20908;-72
2021/12/24 09:19:46;;;;;;;32.00;13.97;;;;;;;;;;5029630;28;20980;-74
2021/12/24 09:22:16;;;;;;;19.03;13.90;;;;;;;;;;5029640;28;20476;-73
2021/12/24 09:24:45;;;;;;;25.27;13.87;;;;;;;;;;5029216;28;20514;-75
2021/12/24 09:27:12;;;;;;;22.50;14.50;;;;;;;;;;5029905;28;20476;-75
2021/12/24 09:29:39;;;;;;;18.73;13.93;;;;;;;;;;5029635;28;20464;-74
2021/12/24 09:32:07;;;;;;;19.73;14.03;;;;;;;;;;5029048;28;20484;-74
2021/12/24 09:34:35;;;;;;;20.60;14.60;;;;;;;;;;5029799;28;20458;-72
2021/12/24 09:37:04;;;;;;;23.97;14.40;;;;;;;;;;5029679;28;20489;-73
2021/12/24 09:39:31;;;;;;;24.30;14.30;;;;;;;;;;5029361;28;20537;-74
2021/12/24 09:41:59;;;;;;;23.50;15.00;;;;;;;;;;5029586;28;20547;-76
2021/12/24 09:44:26;;;;;;;25.80;15.80;;;;;;;;;;5029518;28;20485;-71
2021/12/24 09:46:54;;;;;;;20.40;14.87;;;;;;;;;;5029484;28;20461;-71
2021/12/24 09:49:22;;;;;;;24.60;15.23;;;;;;;;;;5029740;28;20457;-71
2021/12/24 09:51:51;;;;;;;23.80;14.10;;;;;;;;;;5029463;28;20485;-72
2021/12/24 09:54:21;;;;;;;18.43;13.10;;;;;;;;;;5029447;28;20515;-74
2021/12/24 09:56:49;;;;;;;19.83;14.83;;;;;;;;;;5033149;28;20504;-70
2021/12/24 09:59:16;;;;;;;22.43;14.03;;;;;;;;;;5033301;28;20462;-72
2021/12/24 10:01:46;;;;;;;20.43;14.03;;;;;;;;;;5033037;28;20479;-72
2021/12/24 10:04:15;;;;;;;22.97;13.87;;;;;;;;;;5033049;28;20508;-73
2021/12/24 10:06:49;;;;;;;19.70;14.97;;;;;;;;;;5032813;28;20989;-75
2021/12/24 10:09:17;;;;;;;23.67;14.97;;;;;;;;;;5032528;28;20800;-74
2021/12/24 10:11:49;;;;;;;23.70;14.47;;;;;;;;;;5032621;28;20488;-72
2021/12/24 10:14:17;;;;;;;17.83;12.37;;;;;;;;;;5033120;28;20533;-71
2021/12/24 10:16:45;;;;;;;19.93;14.00;;;;;;;;;;5032478;28;20506;-72
2021/12/24 10:19:13;;;;;;;21.70;14.20;;;;;;;;;;5032643;28;20544;-73
2021/12/24 10:21:40;;;;;;;19.77;13.00;;;;;;;;;;5032744;28;20490;-72
2021/12/24 10:24:13;;;;;;;19.90;12.93;;;;;;;;;;5032521;28;20454;-73
2021/12/24 10:26:44;;;;;;;22.67;13.77;;;;;;;;;;5033418;28;20450;-73
2021/12/24 10:29:13;;;;;;;23.20;13.97;;;;;;;;;;5032366;28;20454;-69
2021/12/24 10:31:43;;;;;;;23.23;12.50;;;;;;;;;;5032421;28;20524;-73
2021/12/24 10:34:12;;;;;;;20.70;13.60;;;;;;;;;;5032753;28;20464;-72
2021/12/24 10:36:54;;;;;;;19.90;13.97;;;;;;;;;;5032487;28;20551;-71
2021/12/24 10:39:22;;;;;;;18.90;14.13;;;;;;;;;;5032499;28;20514;-73
2021/12/24 10:41:51;;;;;;;21.93;12.93;;;;;;;;;;5032679;28;20475;-77
2021/12/24 10:44:20;;;;;;;22.40;14.20;;;;;;;;;;5032282;28;20471;-72
2021/12/24 10:47:01;;;;;;;20.60;14.50;;;;;;;;;;5032499;28;20443;-74
2021/12/24 10:55:08;;;;;;;20.90;13.57;;;;;;;;;;5024208;28;20450;-72
2021/12/24 10:57:36;;;;;;;17.50;13.30;;;;;;;;;;5032247;28;20454;-76
2021/12/24 11:00:07;;;;;;;22.67;12.80;;;;;;;;;;5032047;28;20791;-71
2021/12/24 11:02:36;;;;;;;17.73;13.17;;;;;;;;;;5031779;28;20479;-71
2021/12/24 11:05:04;;;;;;;19.20;12.57;;;;;;;;;;5031642;28;20821;-72
2021/12/24 11:07:32;;;;;;;27.00;13.90;;;;;;;;;;5030796;28;20451;-72
2021/12/24 11:10:12;;;;;;;19.77;12.90;;;;;;;;;;5031837;28;20505;-72
2021/12/24 11:12:40;;;;;;;16.00;12.63;;;;;;;;;;5032109;28;20913;-72
2021/12/24 11:15:20;;;;;;;19.73;13.20;;;;;;;;;;5031864;28;20455;-74
2021/12/24 11:17:47;;;;;;;22.43;12.60;;;;;;;;;;5031413;28;21045;-72
2021/12/24 11:20:14;;;;;;;19.30;12.33;;;;;;;;;;5031716;28;20532;-73
2021/12/24 11:22:53;;;;;;;20.47;13.07;;;;;;;;;;5031455;28;20949;-74
2021/12/24 11:25:21;;;;;;;17.37;11.80;;;;;;;;;;5031678;28;20504;-71
2021/12/24 11:27:48;;;;;;;18.87;13.17;;;;;;;;;;5031771;28;20524;-73
2021/12/24 11:30:15;;;;;;;19.57;12.50;;;;;;;;;;5031442;28;20781;-71
2021/12/24 11:32:44;;;;;;;18.93;13.63;;;;;;;;;;5031468;28;20577;-72
2021/12/24 11:35:13;;;;;;;18.60;12.73;;;;;;;;;;5031475;28;20509;-73
2021/12/24 11:37:41;;;;;;;21.90;13.60;;;;;;;;;;5031346;28;20494;-72
2021/12/24 11:40:09;;;;;;;19.90;13.13;;;;;;;;;;5031264;28;20939;-72
2021/12/24 11:42:39;;;;;;;16.33;11.70;;;;;;;;;;5030954;28;20470;-74
2021/12/24 11:45:07;;;;;;;16.73;11.70;;;;;;;;;;5030954;28;20932;-76
2021/12/24 11:47:34;;;;;;;15.53;11.53;;;;;;;;;;5031362;28;20453;-73
2021/12/24 11:50:03;;;;;;;18.43;12.13;;;;;;;;;;5031204;28;20451;-62
2021/12/24 11:52:30;;;;;;;17.80;11.73;;;;;;;;;;5030743;28;20534;-71
2021/12/24 11:54:58;;;;;;;17.40;11.10;;;;;;;;;;5030884;28;20455;-72
2021/12/24 11:57:26;;;;;;;19.47;12.60;;;;;;;;;;5030821;28;20562;-70
2021/12/24 11:59:53;;;;;;;16.07;10.90;;;;;;;;;;5030811;28;20459;-71
2021/12/24 12:02:36;;;;;;;15.30;10.43;;;;;;;;;;5030884;28;20900;-72
2021/12/24 12:05:15;;;;;;;17.70;12.03;;;;;;;;;;5030867;28;20509;-70
2021/12/24 12:07:43;;;;;;;19.40;11.93;;;;;;;;;;5030747;28;20504;-70
2021/12/24 12:10:10;;;;;;;16.87;12.10;;;;;;;;;;5030641;28;20451;-70
2021/12/24 12:12:38;;;;;;;19.80;13.37;;;;;;;;;;5030673;28;20486;-69
2021/12/24 12:15:24;;;;;;;17.33;12.47;;;;;;;;;;5030658;28;21002;-69
2021/12/24 12:17:52;;;;;;;19.70;13.57;;;;;;;;;;5029647;28;20565;-69
2021/12/24 12:20:49;;;;;;;18.33;13.03;;;;;;;;;;5030291;28;20567;-70
2021/12/24 12:23:43;;;;;;;17.13;12.43;;;;;;;;;;5030547;28;20494;-70
2021/12/24 12:26:26;;;;;;;21.80;12.67;;;;;;;;;;5030235;28;20455;-71
2021/12/24 12:29:08;;;;;;;14.23;10.30;;;;;;;;;;5030159;28;20455;-73
2021/12/24 12:31:35;;;;;;;17.90;10.43;;;;;;;;;;5030093;28;20874;-71
2021/12/24 12:34:02;;;;;;;13.07;9.00;;;;;;;;;;5030233;28;20781;-70
2021/12/24 12:36:41;;;;;;;14.20;10.50;;;;;;;;;;5029398;28;21077;-71
2021/12/24 12:39:23;;;;;;;11.70;7.83;;;;;;;;;;5030132;28;20459;-71
2021/12/24 12:41:50;;;;;;;9.33;5.10;;;;;;;;;;5029892;28;20956;-70
2021/12/24 12:44:19;;;;;;;9.50;3.40;;;;;;;;;;5029829;28;20501;-71
2021/12/24 12:46:51;;;;;;;6.50;2.70;;;;;;;;;;5030255;28;20447;-72
2021/12/24 12:55:51;;;;;;;6.70;2.87;;;;;;;;;;4974988;28;20448;-70
2021/12/24 12:58:39;;;;;;;7.70;4.00;;;;;;;;;;4986775;28;20468;-70
2021/12/24 13:01:14;;;;;;;5.57;2.10;;;;;;;;;;4987245;28;20452;-70
2021/12/24 13:03:56;;;;;;;5.33;2.73;;;;;;;;;;4992010;28;20451;-72
2021/12/24 13:06:24;;;;;;;5.03;2.90;;;;;;;;;;5029312;28;20482;-72
2021/12/24 13:08:51;;;;;;;6.53;2.90;;;;;;;;;;5029764;28;20850;-71
2021/12/24 13:11:22;;;;;;;7.83;2.97;;;;;;;;;;5029798;28;20463;-70
2021/12/24 13:13:53;;;;;;;5.77;3.23;;;;;;;;;;5029818;28;20457;-72
2021/12/24 13:16:21;;;;;;;8.57;2.53;;;;;;;;;;5029082;28;20490;-72
2021/12/24 13:18:57;;;;;;;6.43;2.93;;;;;;;;;;5029435;28;20459;-72
2021/12/24 13:24:21;;;;;;;10.33;3.17;;;;;;;;;;4987464;28;20534;-69
2021/12/24 13:26:50;;;;;;;5.10;2.20;;;;;;;;;;5019458;28;20451;-70
2021/12/24 13:29:17;;;;;;;6.43;3.53;;;;;;;;;;5029003;28;20451;-71
2021/12/24 13:31:51;;;;;;;6.00;2.90;;;;;;;;;;5029343;28;20478;-70
2021/12/24 13:34:19;;;;;;;6.53;2.80;;;;;;;;;;5029526;28;20533;-70
2021/12/24 13:36:46;;;;;;;5.80;2.83;;;;;;;;;;5029300;28;20486;-71
2021/12/24 13:39:15;;;;;;;5.40;2.70;;;;;;;;;;5029365;28;20538;-70
2021/12/24 13:41:43;;;;;;;6.40;2.33;;;;;;;;;;5029343;28;20472;-69
2021/12/24 13:44:22;;;;;;;6.13;2.90;;;;;;;;;;5029133;28;20560;-70
2021/12/24 13:47:00;;;;;;;5.40;2.17;;;;;;;;;;5029542;28;20447;-70
2021/12/24 13:49:43;;;;;;;5.90;2.37;;;;;;;;;;5029517;28;20477;-72
2021/12/24 13:54:55;;;;;;;5.23;2.50;;;;;;;;;;5029425;28;20760;-70
2021/12/24 13:57:24;;;;;;;9.10;5.80;;;;;;;;;;5029106;28;20486;-70
2021/12/24 13:59:53;;;;;;;8.50;5.03;;;;;;;;;;5029353;28;20465;-71
2021/12/24 14:02:20;;;;;;;8.93;5.70;;;;;;;;;;5029267;28;20533;-69
2021/12/24 14:04:48;;;;;;;13.87;6.90;;;;;;;;;;5028989;28;20455;-71
2021/12/24 14:07:15;;;;;;;14.37;8.27;;;;;;;;;;5029392;28;20786;-70
2021/12/24 14:09:43;;;;;;;13.00;7.97;;;;;;;;;;5029346;28;21001;-69
2021/12/24 14:12:11;;;;;;;12.30;6.87;;;;;;;;;;5029029;28;20507;-69
2021/12/24 14:14:50;;;;;;;11.50;7.03;;;;;;;;;;5029177;28;20458;-70
2021/12/24 14:17:48;;;;;;;14.90;7.53;;;;;;;;;;5029052;28;20831;-70
2021/12/24 14:20:25;;;;;;;11.63;6.53;;;;;;;;;;5028833;28;20947;-69
2021/12/24 14:22:52;;;;;;;9.47;5.80;;;;;;;;;;5028767;28;20986;-69
2021/12/24 14:25:19;;;;;;;12.40;6.80;;;;;;;;;;5029113;28;20481;-69
2021/12/24 14:27:48;;;;;;;7.83;5.43;;;;;;;;;;5028902;28;20497;-69
2021/12/24 14:30:17;;;;;;;6.70;3.83;;;;;;;;;;5029052;28;20520;-72
2021/12/24 14:32:47;;;;;;;6.20;4.13;;;;;;;;;;5028982;28;20479;-70
2021/12/24 14:35:18;;;;;;;9.67;5.20;;;;;;;;;;5028819;28;20457;-68
2021/12/24 14:37:55;;;;;;;8.00;5.13;;;17.40;63.80;;;;;;5028669;28;20998;-66
2021/12/24 14:40:23;;;;;;;8.90;4.63;;;;;;;;;;5028854;28;20801;-67
2021/12/24 14:42:51;;;;;;;6.90;3.47;;;;;;;;;;5030987;28;20481;-69
2021/12/24 14:45:20;;;;;;;5.97;3.17;;;;;;;;;;5032548;28;20486;-67
2021/12/24 14:47:59;;;;;;;7.07;3.20;;;;;;;;;;5032494;28;20886;-67
2021/12/24 14:50:27;;;;;;;6.73;2.80;;;;;;;;;;5032071;28;20458;-68
2021/12/24 14:53:11;;;;;;;6.33;3.13;;;;;;;;;;5032199;28;20529;-68
2021/12/24 14:55:43;;;;;;;7.20;3.17;;;;;;;;;;5032160;28;20462;-69
2021/12/24 14:58:10;;;;;;;15.30;3.90;;;;;;;;;;5032032;28;20486;-69
2021/12/24 15:00:40;;;;;;;8.37;3.63;;;;;;;;;;5031825;28;20939;-68
2021/12/24 15:03:11;;;;;;;8.30;3.90;;;;;;;;;;5031771;28;21002;-68
2021/12/24 15:05:40;;;;;;;6.80;3.27;;;;;;;;;;5032086;28;21041;-68
2021/12/24 15:08:21;;;;;;;6.80;3.17;;;;;;;;;;5032368;28;20765;-69
2021/12/24 15:11:03;;;;;;;6.70;2.90;;;;;;;;;;5032258;28;20516;-67
2021/12/24 15:13:30;;;;;;;6.80;2.53;;;;;;;;;;5031334;28;20479;-66
2021/12/24 15:16:01;;;;;;;5.80;3.50;;;;;;;;;;5031925;28;20459;-67
2021/12/24 15:18:30;;;;;;;9.83;5.30;;;;;;;;;;5031580;28;20602;-66
2021/12/24 15:20:57;;;;;;;17.67;6.70;;;;;;;;;;5031767;28;20451;-67
2021/12/24 15:23:24;;;;;;;12.83;7.60;;;;;;;;;;5031564;28;20548;-66
2021/12/24 15:25:52;;;;;;;10.20;5.60;;;;;;;;;;5031837;28;20455;-67
2021/12/24 15:28:23;;;;;;;6.30;3.10;;;;;;;;;;5031706;28;20447;-67
2021/12/24 15:30:51;;;;;;;8.13;4.20;;;;;;;;;;5031794;28;21040;-67
2021/12/24 15:33:21;;;;;;;7.47;4.00;;;;;;;;;;5031449;28;20572;-66
2021/12/24 15:35:50;;;;;;;7.40;4.07;;;;;;;;;;5031496;28;20488;-66
2021/12/24 15:38:17;;;;;;;8.90;3.50;;;;;;;;;;5031128;28;21115;-66
2021/12/24 15:40:45;;;;;;;5.90;3.10;;;;;;;;;;5031215;28;20450;-67
2021/12/24 15:43:12;;;;;;;7.53;3.57;;;;;;;;;;5031196;28;20528;-67
2021/12/24 15:45:40;;;;;;;6.60;3.07;;;;;;;;;;5031549;28;20799;-67
2021/12/24 15:48:08;;;;;;;5.70;3.03;;;;;;;;;;5031464;28;20908;-69
2021/12/24 15:50:36;;;;;;;6.30;3.23;;;;;;;;;;5031178;28;20458;-68
2021/12/24 15:53:05;;;;;;;6.47;3.23;;;;;;;;;;5031010;28;20540;-69
2021/12/24 15:55:33;;;;;;;5.77;3.20;;;;;;;;;;5031003;28;20793;-70
2021/12/24 15:58:00;;;;;;;6.90;3.20;;;;;;;;;;5031107;28;20597;-69
2021/12/24 16:00:28;;;;;;;10.40;6.03;;;;;;;;;;5030642;28;20455;-67
2021/12/24 16:02:55;;;;;;;14.00;5.77;;;;;;;;;;5030901;28;20479;-68
2021/12/24 16:05:23;;;;;;;12.40;6.47;;;;;;;;;;5030792;28;20454;-68
2021/12/24 16:07:50;;;;;;;9.40;6.10;;;;;;;;;;5031077;28;20513;-67
2021/12/24 16:10:19;;;;;;;9.33;5.80;;;;;;;;;;5030855;28;20943;-67
2021/12/24 16:12:46;;;;;;;10.07;6.20;;;;;;;;;;5030853;28;20478;-68